createdAt,value
2023-01-07T00:02:26.096Z,13.620000000000001
2023-01-07T00:07:22.222Z,12.599999999999998
2023-01-07T00:12:18.512Z,10.52
2023-01-07T00:17:14.739Z,12.679999999999998
2023-01-07T00:22:11.070Z,12.979999999999999
2023-01-07T00:27:08.293Z,25.98
2023-01-07T00:32:05.549Z,18.880000000000003
2023-01-07T00:37:01.803Z,12.620000000000001
2023-01-07T00:41:58.046Z,11.64
2023-01-07T00:46:54.381Z,11.8
2023-01-07T00:51:50.576Z,10.48
2023-01-07T00:56:46.860Z,10.82
2023-01-07T01:01:43.289Z,12.459999999999999
2023-01-07T01:06:40.330Z,11.02
2023-01-07T01:11:36.598Z,10.080000000000002
2023-01-07T01:16:32.904Z,12.179999999999998
2023-01-07T01:21:35.118Z,12.7
2023-01-07T01:26:35.376Z,11.96
2023-01-07T01:31:31.715Z,11.1
2023-01-07T01:36:27.914Z,13.2
2023-01-07T01:41:24.157Z,12.04
2023-01-07T01:46:20.470Z,11.32
2023-01-07T01:51:19.706Z,12.52
2023-01-07T01:56:18.914Z,12.3
2023-01-07T02:01:15.344Z,13.279999999999998
2023-01-07T02:06:17.395Z,13.5
2023-01-07T02:11:19.659Z,13.3
2023-01-07T02:16:25.931Z,12.58
2023-01-07T02:21:33.173Z,11.940000000000001
2023-01-07T02:26:50.328Z,11.3
2023-01-07T02:32:07.539Z,13.6
2023-01-07T02:37:12.803Z,13.8
2023-01-07T02:42:19.020Z,13.680000000000001
2023-01-07T02:47:20.246Z,15.580000000000002
2023-01-07T02:52:22.157Z,14.84
2023-01-07T02:57:32.774Z,13.060000000000002
2023-01-07T03:02:48.924Z,14.680000000000001
2023-01-07T03:07:58.159Z,14.74
2023-01-07T03:13:01.422Z,14.620000000000001
2023-01-07T03:18:02.664Z,13.9
2023-01-07T03:23:03.886Z,13.86
2023-01-07T03:28:02.221Z,12.260000000000002
2023-01-07T03:33:04.382Z,13.7
2023-01-07T03:38:01.654Z,14.179999999999998
2023-01-07T03:43:01.905Z,13.84
2023-01-07T03:47:59.155Z,14.819999999999999
2023-01-07T03:52:55.391Z,13.8
2023-01-07T03:57:51.715Z,14.8
2023-01-07T04:02:47.984Z,16.24
2023-01-07T04:07:44.192Z,12.64
2023-01-07T04:12:40.450Z,12.76
2023-01-07T04:17:36.777Z,10.26
2023-01-07T04:22:33.002Z,12.84
2023-01-07T04:27:29.219Z,10.440000000000001
2023-01-07T04:32:25.486Z,12.360000000000001
2023-01-07T04:37:21.779Z,12.44
2023-01-07T04:42:18.043Z,12.36
2023-01-07T04:47:14.277Z,12.040000000000001
2023-01-07T04:52:10.528Z,11.8
2023-01-07T04:57:06.821Z,12.02
2023-01-07T05:02:03.179Z,13.419999999999998
2023-01-07T05:06:59.310Z,12.84
2023-01-07T05:11:55.600Z,12.26
2023-01-07T05:16:51.867Z,13.7
2023-01-07T05:21:48.151Z,18.54
2023-01-07T05:26:44.359Z,18.86
2023-01-07T05:31:40.633Z,19.740000000000002
2023-01-07T05:36:36.852Z,24.86
2023-01-07T05:41:33.128Z,26.74
2023-01-07T05:46:29.406Z,23.400000000000002
2023-01-07T05:51:25.663Z,19.340000000000003
2023-01-07T05:56:26.899Z,19.619999999999997
2023-01-07T06:01:23.261Z,20.520000000000003
2023-01-07T06:06:19.441Z,24.639999999999997
2023-01-07T06:11:15.667Z,28.080000000000002
2023-01-07T06:16:13.025Z,24.339999999999996
2023-01-07T06:21:09.200Z,27.4
2023-01-07T06:26:05.445Z,32.919999999999995
2023-01-07T06:31:01.790Z,35.839999999999996
2023-01-07T06:35:57.987Z,33.86
2023-01-07T06:40:54.266Z,30.24
2023-01-07T06:45:50.477Z,35.1
2023-01-07T06:50:46.729Z,34.44
2023-01-07T06:55:46.984Z,71.9
2023-01-07T07:00:44.297Z,82.3
2023-01-07T07:05:40.559Z,88.5
2023-01-07T07:10:36.777Z,67.19999999999999
2023-01-07T07:15:33.082Z,84.72
2023-01-07T07:20:29.358Z,77.78
2023-01-07T07:25:25.576Z,73.52
2023-01-07T07:30:21.820Z,69.28
2023-01-07T07:35:23.053Z,77.67999999999999
2023-01-07T07:40:19.572Z,71.39999999999999
2023-01-07T07:45:15.634Z,51
2023-01-07T07:50:11.867Z,36.760000000000005
2023-01-07T08:00:17.858Z,26.72
2023-01-07T08:05:12.583Z,51.660000000000004
2023-01-07T08:10:08.824Z,27.24
2023-01-07T08:15:07.078Z,29.28
2023-01-07T08:20:07.369Z,22.359999999999996
2023-01-07T08:25:06.575Z,24.779999999999998
2023-01-07T08:30:02.912Z,28.4
2023-01-07T08:34:59.164Z,26.439999999999998
2023-01-07T08:39:55.579Z,28.759999999999998
2023-01-07T08:44:51.680Z,28.060000000000002
2023-01-07T08:49:47.911Z,27.26
2023-01-07T08:54:44.136Z,28.48
2023-01-07T08:59:39.708Z,27.02
2023-01-07T09:04:35.686Z,26
2023-01-07T09:09:31.938Z,29
2023-01-07T09:14:28.184Z,23.14
2023-01-07T09:19:28.795Z,26.72
2023-01-07T09:24:24.792Z,22.86
2023-01-07T09:29:25.975Z,24.78
2023-01-07T09:34:22.200Z,23.58
2023-01-07T09:39:22.476Z,28.619999999999997
2023-01-07T09:44:22.753Z,28.839999999999996
2023-01-07T09:49:27.236Z,25.26
2023-01-07T09:54:30.243Z,26.259999999999998
2023-01-07T09:59:29.499Z,22.54
2023-01-07T10:04:33.737Z,23.72
2023-01-07T10:09:40.985Z,22.08
2023-01-07T10:15:00.166Z,19.48
2023-01-07T10:20:03.407Z,18.880000000000003
2023-01-07T10:25:04.617Z,16.919999999999998
2023-01-07T10:30:09.011Z,17.119999999999997
2023-01-07T10:35:14.096Z,17.419999999999998
2023-01-07T10:40:25.425Z,17.68
2023-01-07T10:45:39.607Z,17.520000000000003
2023-01-07T10:50:48.771Z,18.38
2023-01-07T10:56:03.001Z,18.88
2023-01-07T11:00:59.385Z,14.719999999999999
2023-01-07T11:06:00.160Z,15.580000000000002
2023-01-07T11:11:02.424Z,14.919999999999998
2023-01-07T11:16:06.007Z,19.62
2023-01-07T11:21:42.963Z,15.680000000000001
2023-01-07T11:26:32.440Z,15.639999999999997
2023-01-07T11:31:39.778Z,13.5
2023-01-07T11:36:40.922Z,13.12
2023-01-07T11:41:47.454Z,13.719999999999999
2023-01-07T11:51:51.641Z,10.440000000000001
2023-01-07T11:57:01.874Z,11.040000000000001
2023-01-07T12:02:03.336Z,14.74
2023-01-07T12:07:04.324Z,11.54
2023-01-07T12:12:08.558Z,11.82
2023-01-07T12:17:07.834Z,11.940000000000001
2023-01-07T12:22:13.137Z,19.32
2023-01-07T12:27:17.397Z,11.66
2023-01-07T12:32:23.596Z,10.440000000000001
2023-01-07T12:37:27.794Z,13.84
2023-01-07T12:42:36.264Z,11.84
2023-01-07T12:47:41.245Z,12.5
2023-01-07T12:52:45.503Z,12.1
2023-01-07T12:57:45.721Z,13.2
2023-01-07T13:02:47.977Z,12.98
2023-01-07T13:07:55.235Z,14.440000000000001
2023-01-07T13:12:59.479Z,12.559999999999999
2023-01-07T13:18:07.657Z,14.220000000000002
2023-01-07T13:23:13.233Z,13.719999999999999
2023-01-07T13:28:22.138Z,14.14
2023-01-07T13:33:27.373Z,16.72
2023-01-07T13:38:38.902Z,17.68
2023-01-07T13:43:46.860Z,21.18
2023-01-07T13:48:51.093Z,25.6
2023-01-07T13:53:53.261Z,27.1
2023-01-07T14:04:18.771Z,24.759999999999998
2023-01-07T14:09:18.511Z,43.06
2023-01-07T14:14:23.222Z,19.580000000000002
2023-01-07T14:19:30.487Z,23.52
2023-01-07T14:24:48.229Z,34.5
2023-01-07T14:29:56.490Z,49.64
2023-01-07T14:34:57.338Z,58.620000000000005
2023-01-07T14:40:07.376Z,65.08
2023-01-07T14:45:08.711Z,60.980000000000004
2023-01-07T14:50:17.907Z,45.46
2023-01-07T14:55:40.084Z,47.379999999999995
2023-01-07T15:00:53.851Z,494.78000000000003
2023-01-07T15:06:09.515Z,246.88000000000002
2023-01-07T15:11:10.744Z,78.74000000000001
2023-01-07T15:16:13.503Z,65.56
2023-01-07T15:21:22.234Z,86.3
2023-01-07T15:26:29.466Z,56.17999999999999
2023-01-07T15:31:34.742Z,80.62
2023-01-07T15:36:30.902Z,104.66
2023-01-07T15:41:31.896Z,133.27999999999997
2023-01-07T15:46:31.530Z,136.95999999999998
2023-01-07T15:51:31.740Z,84.66
2023-01-07T15:56:34.956Z,79.68
2023-01-07T16:01:33.832Z,95.18
2023-01-07T16:06:33.461Z,96.78
2023-01-07T16:11:30.682Z,124.38
2023-01-07T16:16:29.090Z,170.12
2023-01-07T16:21:34.717Z,224.4
2023-01-07T16:26:37.433Z,156.07999999999998
2023-01-07T16:31:40.675Z,137.42000000000002
2023-01-07T16:36:42.929Z,132.92000000000002
2023-01-07T16:41:42.369Z,137.18
2023-01-07T16:46:50.465Z,157.95999999999998
2023-01-07T16:51:53.650Z,153.5
2023-01-07T16:56:57.112Z,164.26
2023-01-07T17:01:59.173Z,161.9
2023-01-07T17:06:57.410Z,152.52000000000004
2023-01-07T17:11:58.877Z,148.18
2023-01-07T17:17:01.847Z,120.67999999999999
2023-01-07T17:22:04.131Z,149.98000000000002
2023-01-07T17:27:03.574Z,147.36
2023-01-07T17:32:04.624Z,158.32
2023-01-07T17:37:01.846Z,154.44
2023-01-07T17:42:22.379Z,163.84
2023-01-07T17:47:22.364Z,158.3
2023-01-07T17:52:19.696Z,199.57999999999998
2023-01-07T17:57:15.891Z,171.7
2023-01-07T18:02:22.982Z,162.16
2023-01-07T18:07:19.321Z,163.72
2023-01-07T18:12:21.859Z,259.82
2023-01-07T18:22:28.602Z,246.22000000000003
2023-01-07T18:27:32.752Z,260.6
2023-01-07T18:32:30.159Z,264.64
2023-01-07T18:37:26.855Z,257.76000000000005
2023-01-07T18:42:24.112Z,233.54000000000002
2023-01-07T18:47:21.348Z,244
2023-01-07T18:52:22.076Z,241.04000000000002
2023-01-07T18:57:18.838Z,272.38
2023-01-07T19:02:16.198Z,276.9
2023-01-07T19:07:17.347Z,274.2
2023-01-07T19:12:13.862Z,274.42
2023-01-07T19:17:14.820Z,271.78000000000003
2023-01-07T19:22:15.267Z,274.4
2023-01-07T19:27:12.409Z,272.6
2023-01-07T19:32:08.654Z,262.32000000000005
2023-01-07T19:37:09.855Z,291.40000000000003
2023-01-07T19:42:07.958Z,248.38000000000002
2023-01-07T19:47:04.402Z,270.8
2023-01-07T19:52:01.620Z,235.28000000000003
2023-01-07T19:56:57.898Z,214.76
2023-01-07T20:01:54.346Z,177.27999999999997
2023-01-07T20:06:54.900Z,163.95999999999998
2023-01-07T20:11:50.718Z,161.24
2023-01-07T20:16:53.239Z,163
2023-01-07T20:21:50.144Z,159.42
2023-01-07T20:26:54.419Z,168.34
2023-01-07T20:31:56.679Z,184.28
2023-01-07T20:36:57.871Z,205.18
2023-01-07T20:42:00.232Z,229.28000000000003
2023-01-07T20:47:00.370Z,156.24
2023-01-07T20:51:57.658Z,174.04000000000002
2023-01-07T20:56:57.882Z,195.42
2023-01-07T21:02:00.867Z,212.74
2023-01-07T21:06:57.427Z,154
2023-01-07T21:11:54.653Z,185.92000000000002
2023-01-07T21:16:56.105Z,181.76
2023-01-07T21:21:59.345Z,201.58
2023-01-07T21:27:00.383Z,208.16
2023-01-07T21:31:58.858Z,199.76000000000002
2023-01-07T21:36:55.914Z,192.51999999999998
2023-01-07T21:41:52.249Z,154.94
2023-01-07T21:46:48.427Z,138.38
2023-01-07T21:51:49.664Z,148.7
2023-01-07T21:56:48.915Z,125.34
2023-01-07T22:01:50.483Z,128.14
2023-01-07T22:06:50.397Z,144.84
2023-01-07T22:11:47.684Z,145.9
2023-01-07T22:16:49.231Z,142.88
2023-01-07T22:21:46.151Z,142
2023-01-07T22:26:43.447Z,164.59999999999997
2023-01-07T22:31:44.784Z,152.32000000000002
2023-01-07T22:36:46.133Z,128.14
2023-01-07T22:46:53.930Z,102.54
2023-01-07T22:51:51.672Z,97.3
2023-01-07T22:56:47.976Z,64.04
2023-01-07T23:01:46.199Z,74.3
2023-01-07T23:06:42.873Z,82.34
2023-01-07T23:11:38.705Z,55.48
2023-01-07T23:16:36.120Z,59.620000000000005
2023-01-07T23:21:35.229Z,57.6
2023-01-07T23:26:32.066Z,53.96
2023-01-07T23:31:32.766Z,54.480000000000004
2023-01-07T23:36:34.937Z,42.28
2023-01-07T23:41:31.193Z,36.779999999999994
2023-01-07T23:46:27.517Z,31.9
2023-01-07T23:51:23.732Z,30.119999999999997
2023-01-07T23:56:22.003Z,31.54
